createdAt,value
2022-09-04T00:00:34.563Z,16.58
2022-09-04T00:03:47.797Z,16.60
2022-09-04T00:07:07.062Z,16.54
2022-09-04T00:10:20.464Z,16.46
2022-09-04T00:13:27.413Z,16.46
2022-09-04T00:16:42.977Z,16.45
2022-09-04T00:19:53.891Z,16.33
2022-09-04T00:23:03.946Z,16.35
2022-09-04T00:26:15.928Z,16.31
2022-09-04T00:29:36.348Z,16.27
2022-09-04T00:32:46.874Z,16.24
2022-09-04T00:35:56.349Z,16.22
2022-09-04T00:39:08.819Z,16.19
2022-09-04T00:42:36.134Z,16.15
2022-09-04T00:45:59.214Z,16.10
2022-09-04T00:49:33.000Z,15.99
2022-09-04T00:53:02.484Z,15.98
2022-09-04T00:56:33.658Z,15.98
2022-09-04T00:59:58.717Z,15.94
2022-09-04T01:03:22.131Z,15.86
2022-09-04T01:06:37.071Z,15.87
2022-09-04T01:09:58.411Z,15.86
2022-09-04T01:14:00.706Z,15.83
2022-09-04T01:17:16.005Z,15.77
2022-09-04T01:20:31.508Z,15.74
2022-09-04T01:24:01.040Z,15.74
2022-09-04T01:27:10.262Z,15.73
2022-09-04T01:30:17.598Z,15.74
2022-09-04T01:33:30.332Z,15.73
2022-09-04T01:36:42.722Z,15.66
2022-09-04T01:40:17.514Z,15.70
2022-09-04T01:43:24.130Z,15.71
2022-09-04T01:46:43.045Z,15.67
2022-09-04T01:49:52.143Z,15.68
2022-09-04T01:53:05.797Z,15.64
2022-09-04T01:56:16.321Z,15.61
2022-09-04T01:59:29.114Z,15.55
2022-09-04T02:02:47.836Z,15.55
2022-09-04T02:06:06.758Z,15.53
2022-09-04T02:09:27.315Z,15.52
2022-09-04T02:12:38.010Z,15.51
2022-09-04T02:15:50.276Z,15.49
2022-09-04T02:19:04.590Z,15.35
2022-09-04T02:22:20.763Z,15.35
2022-09-04T02:25:32.215Z,15.32
2022-09-04T02:28:51.232Z,15.31
2022-09-04T02:32:05.147Z,15.26
2022-09-04T02:35:23.109Z,15.25
2022-09-04T02:38:34.189Z,15.25
2022-09-04T02:41:50.902Z,15.21
2022-09-04T02:45:10.747Z,15.23
2022-09-04T02:48:25.513Z,15.20
2022-09-04T02:51:54.173Z,15.17
2022-09-04T02:55:14.058Z,15.18
2022-09-04T02:58:31.283Z,15.15
2022-09-04T03:01:49.184Z,15.17
2022-09-04T03:05:03.037Z,15.18
2022-09-04T03:08:14.352Z,15.15
2022-09-04T03:11:23.450Z,15.10
2022-09-04T03:14:36.229Z,15.08
2022-09-04T03:17:48.973Z,15.04
2022-09-04T03:20:59.381Z,15.01
2022-09-04T03:24:09.281Z,14.95
2022-09-04T03:27:16.398Z,14.89
2022-09-04T03:30:20.090Z,14.89
2022-09-04T03:33:31.506Z,14.86
2022-09-04T03:36:44.077Z,14.81
2022-09-04T03:40:04.403Z,14.84
2022-09-04T03:43:45.082Z,14.79
2022-09-04T03:47:03.003Z,14.73
2022-09-04T03:50:18.991Z,14.71
2022-09-04T03:53:33.869Z,14.64
2022-09-04T03:57:00.102Z,14.67
2022-09-04T04:00:11.900Z,14.60
2022-09-04T04:03:48.055Z,14.56
2022-09-04T04:07:07.830Z,14.49
2022-09-04T04:10:31.083Z,14.41
2022-09-04T04:14:06.828Z,14.40
2022-09-04T04:17:35.992Z,14.22
2022-09-04T04:20:52.424Z,14.14
2022-09-04T04:24:27.095Z,14.17
2022-09-04T04:27:49.176Z,14.12
2022-09-04T04:30:54.542Z,14.06
2022-09-04T04:34:06.794Z,14.01
2022-09-04T04:37:18.622Z,13.98
2022-09-04T04:40:36.057Z,13.99
2022-09-04T04:43:55.776Z,13.96
2022-09-04T04:47:15.959Z,13.89
2022-09-04T04:50:27.246Z,13.89
2022-09-04T04:53:36.814Z,13.88
2022-09-04T04:56:47.803Z,13.86
2022-09-04T05:00:08.347Z,13.90
2022-09-04T05:03:22.104Z,13.89
2022-09-04T05:06:36.552Z,13.90
2022-09-04T05:09:49.991Z,13.86
2022-09-04T05:13:03.585Z,13.88
2022-09-04T05:16:19.346Z,13.96
2022-09-04T05:19:30.944Z,14.00
2022-09-04T05:22:40.598Z,13.97
2022-09-04T05:25:51.904Z,14.00
2022-09-04T05:29:02.921Z,14.02
2022-09-04T05:32:20.842Z,14.02
2022-09-04T05:35:35.566Z,14.05
2022-09-04T05:38:55.152Z,14.07
2022-09-04T05:42:16.458Z,14.11
2022-09-04T05:45:26.256Z,14.14
2022-09-04T05:48:39.964Z,14.23
2022-09-04T05:52:23.333Z,14.37
2022-09-04T05:55:45.383Z,14.40
2022-09-04T05:59:13.036Z,14.47
2022-09-04T06:02:47.181Z,14.59
2022-09-04T06:06:15.095Z,14.64
2022-09-04T06:09:34.991Z,14.72
2022-09-04T06:13:03.006Z,14.77
2022-09-04T06:16:26.975Z,14.88
2022-09-04T06:19:48.919Z,14.99
2022-09-04T06:23:08.255Z,15.11
2022-09-04T06:26:39.961Z,15.19
2022-09-04T06:30:03.726Z,15.25
2022-09-04T06:33:36.896Z,15.29
2022-09-04T06:36:57.503Z,15.16
2022-09-04T06:40:21.641Z,15.18
2022-09-04T06:43:37.877Z,15.28
2022-09-04T06:46:52.146Z,15.41
2022-09-04T06:50:17.670Z,15.52
2022-09-04T06:53:42.423Z,15.63
2022-09-04T06:57:06.847Z,15.72
2022-09-04T07:00:12.575Z,15.84
2022-09-04T07:03:31.839Z,15.92
2022-09-04T07:06:50.782Z,16.00
2022-09-04T07:10:01.707Z,16.20
2022-09-04T07:13:37.945Z,16.41
2022-09-04T07:16:47.813Z,16.53
2022-09-04T07:20:12.789Z,17.13
2022-09-04T07:23:30.836Z,18.28
2022-09-04T07:26:42.559Z,17.57
2022-09-04T07:29:54.159Z,17.44
2022-09-04T07:33:00.938Z,17.36
2022-09-04T07:36:10.058Z,17.31
2022-09-04T07:39:22.197Z,17.47
2022-09-04T07:42:32.763Z,17.56
2022-09-04T07:45:39.922Z,17.72
2022-09-04T07:48:48.173Z,17.76
2022-09-04T07:51:58.605Z,17.79
2022-09-04T07:55:24.947Z,17.97
2022-09-04T07:58:58.494Z,18.01
2022-09-04T08:02:22.147Z,18.06
2022-09-04T08:05:28.999Z,18.19
2022-09-04T08:09:10.822Z,18.37
2022-09-04T08:12:38.402Z,18.56
2022-09-04T08:15:46.445Z,18.72
2022-09-04T08:19:03.408Z,18.78
2022-09-04T08:22:07.851Z,18.87
2022-09-04T08:25:20.746Z,18.92
2022-09-04T08:28:46.085Z,19.09
2022-09-04T08:32:05.475Z,19.45
2022-09-04T08:35:21.243Z,19.67
2022-09-04T08:38:50.422Z,19.81
2022-09-04T08:42:45.482Z,19.80
2022-09-04T08:46:19.402Z,19.92
2022-09-04T08:50:11.399Z,19.88
2022-09-04T08:53:46.179Z,19.83
2022-09-04T08:57:18.587Z,20.14
2022-09-04T09:00:22.977Z,20.52
2022-09-04T09:04:08.698Z,20.33
2022-09-04T09:07:42.520Z,20.73
2022-09-04T09:11:32.414Z,20.78
2022-09-04T09:15:49.667Z,21.13
2022-09-04T09:19:22.734Z,21.15
2022-09-04T09:23:18.409Z,21.45
2022-09-04T09:26:29.204Z,21.55
2022-09-04T09:30:03.338Z,21.62
2022-09-04T09:34:02.316Z,21.97
2022-09-04T09:37:59.108Z,21.89
2022-09-04T09:41:47.962Z,22.25
2022-09-04T09:45:26.023Z,22.48
2022-09-04T09:49:14.813Z,22.19
2022-09-04T09:52:59.595Z,22.19
2022-09-04T09:56:32.061Z,22.56
2022-09-04T10:00:06.845Z,22.96
2022-09-04T10:04:11.947Z,23.23
2022-09-04T10:07:58.835Z,23.39
2022-09-04T10:11:44.240Z,23.18
2022-09-04T10:15:33.411Z,23.46
2022-09-04T10:19:18.661Z,23.41
2022-09-04T10:23:00.575Z,23.64
2022-09-04T10:26:57.614Z,23.71
2022-09-04T10:30:07.765Z,23.78
2022-09-04T10:33:33.871Z,23.74
2022-09-04T10:36:48.573Z,24.05
2022-09-04T10:40:28.222Z,24.39
2022-09-04T10:43:51.835Z,24.53
2022-09-04T10:47:10.620Z,24.39
2022-09-04T10:50:28.618Z,24.70
2022-09-04T10:54:22.440Z,25.00
2022-09-04T10:57:52.165Z,25.27
2022-09-04T11:01:29.684Z,24.85
2022-09-04T11:05:15.640Z,25.08
2022-09-04T11:08:55.955Z,25.28
2022-09-04T11:12:41.018Z,25.67
2022-09-04T11:16:16.354Z,25.11
2022-09-04T11:20:30.481Z,25.21
2022-09-04T11:24:06.065Z,25.61
2022-09-04T11:27:34.119Z,25.70
2022-09-04T11:31:02.075Z,25.72
2022-09-04T11:34:54.089Z,25.94
2022-09-04T11:38:18.390Z,26.07
2022-09-04T11:41:59.386Z,26.04
2022-09-04T11:45:44.547Z,26.10
2022-09-04T11:49:14.521Z,26.09
2022-09-04T11:52:28.515Z,25.88
2022-09-04T11:55:53.316Z,25.75
2022-09-04T11:59:25.439Z,26.10
2022-09-04T12:03:06.503Z,25.99
2022-09-04T12:06:36.426Z,26.22
2022-09-04T12:10:01.031Z,25.88
2022-09-04T12:13:33.637Z,25.83
2022-09-04T12:17:30.022Z,26.08
2022-09-04T12:21:12.245Z,26.05
2022-09-04T12:24:43.470Z,25.71
2022-09-04T12:28:21.036Z,25.68
2022-09-04T12:31:51.318Z,25.78
2022-09-04T12:35:33.696Z,25.63
2022-09-04T12:39:20.440Z,26.20
2022-09-04T12:42:30.023Z,26.60
2022-09-04T12:45:44.692Z,26.91
2022-09-04T12:49:01.175Z,26.71
2022-09-04T12:52:19.176Z,26.45
2022-09-04T12:55:36.057Z,26.64
2022-09-04T12:59:03.231Z,26.85
2022-09-04T13:02:18.693Z,26.69
2022-09-04T13:05:41.945Z,26.48
2022-09-04T13:09:11.310Z,25.98
2022-09-04T13:12:25.539Z,25.89
2022-09-04T13:15:40.728Z,26.31
2022-09-04T13:19:00.155Z,26.65
2022-09-04T13:22:19.932Z,26.70
2022-09-04T13:25:34.327Z,26.88
2022-09-04T13:28:53.555Z,26.43
2022-09-04T13:32:30.459Z,27.06
2022-09-04T13:35:53.573Z,27.55
2022-09-04T13:39:27.090Z,27.91
2022-09-04T13:42:59.487Z,28.06
2022-09-04T13:46:08.058Z,28.12
2022-09-04T13:49:16.467Z,27.98
2022-09-04T13:52:27.302Z,27.73
2022-09-04T13:55:34.884Z,27.58
2022-09-04T13:58:47.656Z,26.81
2022-09-04T14:01:55.167Z,26.70
2022-09-04T14:05:07.364Z,26.75
2022-09-04T14:08:18.112Z,26.93
2022-09-04T14:12:01.335Z,26.74
2022-09-04T14:15:59.869Z,26.02
2022-09-04T14:19:17.325Z,26.25
2022-09-04T14:22:41.315Z,26.60
2022-09-04T14:25:51.083Z,26.65
2022-09-04T14:29:04.132Z,25.97
2022-09-04T14:32:19.420Z,26.50
2022-09-04T14:35:36.554Z,27.16
2022-09-04T14:39:18.834Z,27.04
2022-09-04T14:42:42.621Z,26.16
2022-09-04T14:46:06.594Z,25.61
2022-09-04T14:49:16.991Z,25.80
2022-09-04T14:52:25.345Z,26.04
2022-09-04T14:55:31.329Z,25.92
2022-09-04T14:58:38.341Z,25.64
2022-09-04T15:02:05.569Z,25.85
2022-09-04T15:05:21.859Z,26.41
2022-09-04T15:08:36.783Z,26.72
2022-09-04T15:11:43.653Z,26.79
2022-09-04T15:14:51.245Z,26.85
2022-09-04T15:18:01.776Z,26.97
2022-09-04T15:21:12.322Z,26.61
2022-09-04T15:24:26.770Z,26.35
2022-09-04T15:27:45.221Z,26.57
2022-09-04T15:31:05.632Z,26.89
2022-09-04T15:34:12.551Z,26.86
2022-09-04T15:37:23.656Z,26.73
2022-09-04T15:40:34.439Z,25.95
2022-09-04T15:43:43.842Z,25.56
2022-09-04T15:47:01.086Z,25.42
2022-09-04T15:50:18.191Z,25.35
2022-09-04T15:53:28.607Z,25.14
2022-09-04T15:56:39.174Z,24.92
2022-09-04T15:59:53.182Z,24.86
2022-09-04T16:03:03.182Z,24.60
2022-09-04T16:06:17.264Z,24.47
2022-09-04T16:09:25.990Z,24.41
2022-09-04T16:12:34.482Z,24.45
2022-09-04T16:15:42.667Z,24.46
2022-09-04T16:18:58.933Z,24.16
2022-09-04T16:22:11.559Z,24.17
2022-09-04T16:25:28.943Z,24.06
2022-09-04T16:28:40.985Z,23.98
2022-09-04T16:31:53.878Z,23.87
2022-09-04T16:35:01.734Z,23.82
2022-09-04T16:38:14.790Z,23.81
2022-09-04T16:41:25.590Z,23.73
2022-09-04T16:44:37.019Z,23.67
2022-09-04T16:47:47.312Z,23.58
2022-09-04T16:50:55.814Z,23.49
2022-09-04T16:54:08.511Z,23.53
2022-09-04T16:57:17.104Z,23.49
2022-09-04T17:00:22.336Z,23.37
2022-09-04T17:03:29.922Z,23.31
2022-09-04T17:06:42.731Z,23.25
2022-09-04T17:10:01.677Z,23.20
2022-09-04T17:13:13.081Z,23.08
2022-09-04T17:16:21.708Z,22.99
2022-09-04T17:19:25.962Z,22.98
2022-09-04T17:28:58.037Z,22.91
2022-09-04T17:28:58.371Z,22.85
2022-09-04T17:29:42.900Z,22.76
2022-09-04T17:38:28.373Z,22.65
2022-09-04T17:40:41.350Z,22.44
2022-09-04T17:40:55.440Z,22.15
2022-09-04T17:43:35.800Z,22.18
2022-09-04T17:46:44.695Z,22.06
2022-09-04T17:49:52.144Z,22.05
2022-09-04T17:52:59.963Z,21.98
2022-09-04T17:56:09.316Z,21.85
2022-09-04T17:59:19.415Z,21.73
2022-09-04T18:02:30.402Z,21.67
2022-09-04T18:05:51.591Z,21.60
2022-09-04T18:09:07.766Z,21.36
2022-09-04T18:12:21.362Z,21.25
2022-09-04T18:15:34.798Z,21.27
2022-09-04T18:18:41.748Z,21.32
2022-09-04T18:22:15.764Z,21.28
2022-09-04T18:25:17.893Z,21.04
2022-09-04T18:28:28.051Z,20.99
2022-09-04T18:37:09.139Z,20.92
2022-09-04T18:37:19.202Z,20.79
2022-09-04T18:38:41.793Z,20.76
2022-09-04T18:47:58.126Z,20.69
2022-09-04T18:50:38.515Z,20.70
2022-09-04T18:50:53.392Z,20.56
2022-09-04T18:52:55.352Z,20.50
2022-09-04T18:56:03.743Z,20.53
2022-09-04T18:59:25.618Z,20.56
2022-09-04T19:02:31.520Z,20.48
2022-09-04T19:05:44.767Z,20.52
2022-09-04T19:08:52.747Z,20.44
2022-09-04T19:12:03.948Z,20.29
2022-09-04T19:15:36.632Z,20.27
2022-09-04T19:18:50.014Z,20.16
2022-09-04T19:21:58.726Z,20.19
2022-09-04T19:25:07.504Z,20.15
2022-09-04T19:28:16.408Z,20.15
2022-09-04T19:31:29.956Z,20.06
2022-09-04T19:34:41.303Z,19.98
2022-09-04T19:40:27.411Z,19.98
2022-09-04T19:46:07.830Z,19.87
2022-09-04T19:46:13.769Z,19.78
2022-09-04T19:48:32.113Z,19.66
2022-09-04T19:53:19.591Z,19.63
2022-09-04T19:55:24.671Z,19.51
2022-09-04T19:58:38.822Z,19.51
2022-09-04T20:01:49.585Z,19.47
2022-09-04T20:04:56.959Z,19.45
2022-09-04T20:08:08.494Z,19.41
2022-09-04T20:11:35.326Z,19.32
2022-09-04T20:14:45.171Z,19.26
2022-09-04T20:18:04.505Z,19.16
2022-09-04T20:21:15.539Z,19.21
2022-09-04T20:24:23.016Z,19.13
2022-09-04T20:27:34.020Z,18.96
2022-09-04T20:30:43.857Z,18.96
2022-09-04T20:33:51.795Z,19.00
2022-09-04T20:37:15.860Z,19.00
2022-09-04T20:40:27.457Z,18.92
2022-09-04T20:43:45.679Z,18.91
2022-09-04T20:52:40.654Z,18.71
2022-09-04T20:52:53.683Z,18.69
2022-09-04T20:54:14.991Z,18.54
2022-09-04T21:03:14.935Z,18.51
2022-09-04T21:03:24.231Z,18.48
2022-09-04T21:04:43.409Z,18.43
2022-09-04T21:07:56.073Z,18.39
2022-09-04T21:11:03.341Z,18.27
2022-09-04T21:14:28.587Z,18.16
2022-09-04T21:18:21.199Z,17.97
2022-09-04T21:21:46.257Z,17.95
2022-09-04T21:25:18.838Z,17.80
2022-09-04T21:28:50.811Z,17.82
2022-09-04T21:32:29.397Z,17.92
2022-09-04T21:35:36.919Z,17.99
2022-09-04T21:39:28.137Z,17.96
2022-09-04T21:43:05.387Z,17.91
2022-09-04T21:46:31.066Z,17.93
2022-09-04T21:50:39.153Z,17.84
2022-09-04T21:54:04.657Z,17.68
2022-09-04T22:02:28.297Z,17.74
2022-09-04T22:02:40.790Z,17.71
2022-09-04T22:05:09.664Z,17.67
2022-09-04T22:12:44.093Z,17.67
2022-09-04T22:13:41.680Z,17.57
2022-09-04T22:15:39.075Z,17.56
2022-09-04T22:19:02.124Z,17.49
2022-09-04T22:22:54.604Z,17.50
2022-09-04T22:26:23.797Z,17.35
2022-09-04T22:29:49.925Z,17.31
2022-09-04T22:34:14.306Z,17.25
2022-09-04T22:37:49.150Z,17.17
2022-09-04T22:41:08.732Z,17.18
2022-09-04T22:44:29.436Z,17.10
2022-09-04T22:47:49.963Z,17.01
2022-09-04T22:51:08.140Z,17.01
2022-09-04T22:54:30.730Z,16.89
2022-09-04T22:57:52.398Z,16.89
2022-09-04T23:01:17.322Z,16.82
2022-09-04T23:04:58.165Z,16.71
2022-09-04T23:13:44.079Z,16.69
2022-09-04T23:13:56.229Z,16.75
2022-09-04T23:15:45.206Z,16.79
2022-09-04T23:26:33.725Z,16.67
2022-09-04T23:26:38.817Z,16.70
2022-09-04T23:27:00.865Z,16.51
2022-09-04T23:30:26.635Z,16.50
2022-09-04T23:33:53.910Z,16.58
2022-09-04T23:37:24.755Z,16.64
2022-09-04T23:40:37.214Z,16.58
2022-09-04T23:44:16.645Z,16.57
2022-09-04T23:47:59.142Z,16.57
2022-09-04T23:51:11.287Z,16.58
2022-09-04T23:54:56.766Z,16.57
2022-09-04T23:58:29.115Z,16.51
